Time;durP1;ratioP1;P1;durP2;ratioP2;P2;SDS_P1;SDS_P2;PMS_P1;PMS_P2;Temp;Humidity;BMP_temperature;BMP_pressure;BME280_temperature;BME280_humidity;BME280_pressure;Samples;Min_cycle;Max_cycle;Signal;HPM_P1;HPM_P2
2022/03/29 00:00:42;;;;;;;91.18;50.58;;;7.40;99.90;;;;;;5074808;28;20038;-90
2022/03/29 00:03:12;;;;;;;82.30;47.38;;;7.30;99.90;;;;;;5074875;28;20024;-91
2022/03/29 00:05:38;;;;;;;93.93;49.25;;;7.30;99.90;;;;;;5074929;28;20020;-91
2022/03/29 00:08:16;;;;;;;80.93;47.28;;;7.30;99.90;;;;;;5092797;28;20035;-90
2022/03/29 00:10:41;;;;;;;83.25;47.28;;;7.30;99.90;;;;;;5054991;28;20029;-91
2022/03/29 00:13:44;;;;;;;85.90;48.50;;;7.40;99.90;;;;;;5087758;28;20777;-91
2022/03/29 00:16:09;;;;;;;86.82;45.75;;;7.30;99.90;;;;;;5074714;28;20393;-91
2022/03/29 00:18:48;;;;;;;78.32;46.25;;;7.30;99.90;;;;;;5092440;28;20034;-92
2022/03/29 00:21:14;;;;;;;86.78;48.13;;;7.30;99.90;;;;;;5074824;28;20039;-90
2022/03/29 00:24:14;;;;;;;93.70;48.88;;;7.30;99.90;;;;;;5090865;28;20020;-91
2022/03/29 00:26:41;;;;;;;86.35;48.17;;;7.40;99.90;;;;;;5074774;28;20054;-92
2022/03/29 00:29:32;;;;;;;77.07;44.75;;;7.30;99.90;;;;;;5075390;28;20373;-92
2022/03/29 00:31:58;;;;;;;83.32;46.28;;;7.30;99.90;;;;;;5074718;28;20031;-91
2022/03/29 00:34:24;;;;;;;82.25;47.03;;;7.40;99.90;;;;;;5074961;28;20024;-91
2022/03/29 00:36:54;;;;;;;75.97;41.65;;;7.30;99.90;;;;;;5074956;28;20077;-91
2022/03/29 00:39:19;;;;;;;77.85;45.92;;;7.30;99.90;;;;;;5074895;28;20038;-91
2022/03/29 00:41:45;;;;;;;78.13;44.08;;;7.20;99.90;;;;;;5075062;28;20028;-93
2022/03/29 00:44:29;;;;;;;81.25;45.10;;;7.20;99.90;;;;;;5092883;28;20074;-90
2022/03/29 00:46:55;;;;;;;77.68;43.65;;;7.10;99.90;;;;;;5074245;28;20022;-91
2022/03/29 00:49:20;;;;;;;73.72;42.28;;;7.10;99.90;;;;;;5074854;28;20028;-91
2022/03/29 00:51:47;;;;;;;70.90;40.45;;;7.10;99.90;;;;;;5092968;28;20503;-91
2022/03/29 00:54:13;;;;;;;67.10;39.42;;;7.10;99.90;;;;;;5074945;28;20031;-91
2022/03/29 00:56:49;;;;;;;80.10;42.03;;;7.10;99.90;;;;;;5075005;28;20052;-92
2022/03/29 00:59:14;;;;;;;73.88;39.83;;;7.10;99.90;;;;;;5075242;28;20024;-92
2022/03/29 01:01:40;;;;;;;73.22;41.25;;;7.10;99.90;;;;;;5074758;28;20016;-92
2022/03/29 01:04:40;;;;;;;71.15;40.33;;;7.10;99.90;;;;;;5074252;28;20068;-91
2022/03/29 01:07:06;;;;;;;63.72;39.28;;;7.10;99.90;;;;;;5075280;28;20024;-90
2022/03/29 01:09:46;;;;;;;63.25;37.83;;;7.00;99.90;;;;;;5078461;28;20032;-91
2022/03/29 01:12:11;;;;;;;64.13;40.03;;;7.10;99.90;;;;;;5078080;28;20035;-91
2022/03/29 01:14:52;;;;;;;71.90;41.38;;;7.10;99.90;;;;;;5095853;28;20028;-90
2022/03/29 01:20:06;;;;;;;60.53;37.30;;;7.10;99.90;;;;;;5096783;28;20391;-91
2022/03/29 01:22:56;;;;;;;64.68;36.83;;;7.10;99.90;;;;;;5078082;28;20016;-92
2022/03/29 01:25:42;;;;;;;71.13;41.08;;;7.20;99.90;;;;;;5074256;28;20408;-91
2022/03/29 01:28:08;;;;;;;62.35;36.22;;;7.20;99.90;;;;;;5058043;28;20024;-91
2022/03/29 01:30:34;;;;;;;64.40;39.10;;;7.20;99.90;;;;;;5074680;28;20502;-91
2022/03/29 01:33:07;;;;;;;61.25;39.80;;;7.20;99.90;;;;;;5077426;28;20016;-92
2022/03/29 01:35:33;;;;;;;67.95;39.33;;;7.20;99.90;;;;;;5095976;28;20020;-91
2022/03/29 01:38:16;;;;;;;64.63;38.72;;;7.20;99.90;;;;;;5095936;28;20421;-92
2022/03/29 01:40:42;;;;;;;58.83;34.83;;;7.20;99.90;;;;;;5078290;28;20028;-93
2022/03/29 01:43:11;;;;;;;64.45;38.63;;;7.20;99.90;;;;;;5096046;28;20099;-92
2022/03/29 01:45:37;;;;;;;62.38;37.67;;;7.20;99.90;;;;;;5056127;28;20024;-93
2022/03/29 01:48:27;;;;;;;59.35;35.20;;;7.20;99.90;;;;;;5063844;28;20394;-92
2022/03/29 01:50:53;;;;;;;64.05;37.63;;;7.20;99.90;;;;;;5077668;28;20027;-91
2022/03/29 01:53:27;;;;;;;59.97;36.85;;;7.20;99.90;;;;;;5077717;28;20035;-92
2022/03/29 01:56:13;;;;;;;52.45;34.88;;;7.20;99.90;;;;;;5077586;28;20480;-92
2022/03/29 01:58:39;;;;;;;55.15;34.90;;;7.10;99.90;;;;;;5077863;28;20115;-91
2022/03/29 02:01:08;;;;;;;57.33;34.42;;;7.20;99.90;;;;;;5077221;28;20115;-91
2022/03/29 02:03:34;;;;;;;65.65;36.83;;;7.20;99.90;;;;;;5077406;28;20020;-92
2022/03/29 02:06:21;;;;;;;56.08;34.50;;;7.20;99.90;;;;;;5077263;28;20023;-92
2022/03/29 02:08:47;;;;;;;58.35;36.67;;;7.20;99.90;;;;;;5077558;28;20542;-92
2022/03/29 02:11:13;;;;;;;62.10;33.88;;;7.20;99.90;;;;;;5077355;28;20109;-92
2022/03/29 02:13:47;;;;;;;61.25;36.15;;;7.20;99.90;;;;;;5077276;28;20028;-92
2022/03/29 02:16:13;;;;;;;66.68;37.75;;;7.20;99.90;;;;;;5077208;28;20077;-91
2022/03/29 02:18:38;;;;;;;66.72;37.95;;;7.20;99.90;;;;;;5076440;28;20119;-92
2022/03/29 02:21:29;;;;;;;60.97;35.00;;;7.10;99.90;;;;;;5077239;28;20021;-91
2022/03/29 02:23:54;;;;;;;64.60;37.03;;;7.00;99.90;;;;;;5076999;28;20443;-92
2022/03/29 02:26:20;;;;;;;57.38;34.90;;;7.00;99.90;;;;;;5056240;28;20033;-91
2022/03/29 02:28:53;;;;;;;57.15;34.70;;;7.00;99.90;;;;;;5053456;28;20036;-91
2022/03/29 02:31:18;;;;;;;60.03;34.50;;;7.00;99.90;;;;;;5054305;28;20036;-91
2022/03/29 02:33:46;;;;;;;58.65;35.55;;;6.90;99.90;;;;;;5052675;28;20385;-91
2022/03/29 02:36:13;;;;;;;56.17;35.55;;;6.90;99.90;;;;;;5054600;28;20029;-91
2022/03/29 02:38:45;;;;;;;54.47;33.80;;;6.90;99.90;;;;;;5053101;28;20032;-91
2022/03/29 02:41:11;;;;;;;57.65;37.05;;;6.90;99.90;;;;;;5053388;28;20206;-91
2022/03/29 02:43:37;;;;;;;59.70;36.88;;;6.90;99.90;;;;;;5053305;28;20040;-92
2022/03/29 02:46:24;;;;;;;62.78;36.22;;;6.90;99.90;;;;;;5053190;28;20112;-92
2022/03/29 02:48:50;;;;;;;65.63;37.97;;;6.90;99.90;;;;;;5053810;28;20116;-92
2022/03/29 02:51:19;;;;;;;57.60;34.38;;;6.80;99.90;;;;;;5054373;28;20485;-91
2022/03/29 02:53:45;;;;;;;70.43;40.72;;;6.90;99.90;;;;;;5053045;28;20031;-91
2022/03/29 02:56:10;;;;;;;71.75;43.83;;;6.80;99.90;;;;;;5052859;28;20115;-91
2022/03/29 02:58:56;;;;;;;77.90;42.97;;;6.80;99.90;;;;;;5052682;28;20025;-91
2022/03/29 03:01:22;;;;;;;75.78;39.97;;;6.80;99.90;;;;;;5053790;28;20476;-91
2022/03/29 03:04:13;;;;;;;70.30;40.20;;;6.70;99.90;;;;;;5052888;28;20111;-91
2022/03/29 03:06:42;;;;;;;69.13;40.28;;;6.70;99.90;;;;;;5052496;28;20158;-91
2022/03/29 03:09:09;;;;;;;68.70;39.05;;;6.80;99.90;;;;;;5052726;28;20032;-90
2022/03/29 03:11:36;;;;;;;73.53;43.60;;;6.70;99.90;;;;;;5052481;28;20025;-92
2022/03/29 03:14:01;;;;;;;67.30;40.67;;;6.70;99.90;;;;;;5052517;28;20409;-91
2022/03/29 03:16:28;;;;;;;69.20;38.53;;;6.70;99.90;;;;;;5053682;28;20159;-91
2022/03/29 03:18:54;;;;;;;75.95;41.85;;;6.70;99.90;;;;;;5052422;28;20100;-91
2022/03/29 03:21:31;;;;;;;65.60;40.47;;;6.70;99.90;;;;;;5052574;28;20029;-91
2022/03/29 03:23:57;;;;;;;65.85;36.08;;;6.70;99.90;;;;;;5052400;28;20102;-91
2022/03/29 03:26:23;;;;;;;65.28;40.03;;;6.60;99.90;;;;;;5053000;28;20090;-90
2022/03/29 03:28:49;;;;;;;75.55;40.20;;;6.60;99.90;;;;;;5053444;28;20029;-90
2022/03/29 03:31:14;;;;;;;76.80;43.97;;;6.60;99.90;;;;;;5051899;28;20029;-91
2022/03/29 03:34:22;;;;;;;70.20;41.70;;;6.60;99.90;;;;;;5052212;28;20025;-91
2022/03/29 03:36:47;;;;;;;70.85;41.88;;;6.60;99.90;;;;;;5052277;28;20078;-89
2022/03/29 03:39:13;;;;;;;80.95;44.15;;;6.60;99.90;;;;;;5053179;28;20480;-91
2022/03/29 03:41:40;;;;;;;73.80;42.80;;;6.70;99.90;;;;;;5053295;28;20100;-90
2022/03/29 03:44:16;;;;;;;73.07;43.55;;;6.60;99.90;;;;;;5052483;28;20043;-90
2022/03/29 03:46:42;;;;;;;85.35;44.88;;;6.50;99.90;;;;;;5051761;28;20036;-89
2022/03/29 03:49:08;;;;;;;83.60;45.88;;;6.50;99.90;;;;;;5052851;28;20044;-88
2022/03/29 03:51:37;;;;;;;86.82;44.80;;;6.50;99.90;;;;;;5051495;28;20025;-88
2022/03/29 03:54:03;;;;;;;87.85;45.67;;;6.40;99.90;;;;;;5051345;28;20057;-89
2022/03/29 03:56:31;;;;;;;88.72;47.80;;;6.40;99.90;;;;;;5052932;28;20059;-88
2022/03/29 03:58:56;;;;;;;79.85;45.55;;;6.30;99.90;;;;;;5052499;28;20029;-89
2022/03/29 04:01:34;;;;;;;83.38;48.67;;;6.30;99.90;;;;;;5052663;28;20055;-89
2022/03/29 04:04:00;;;;;;;80.47;45.20;;;6.20;99.90;;;;;;5051373;28;20424;-89
2022/03/29 04:06:38;;;;;;;83.07;48.47;;;6.20;99.90;;;;;;5052922;28;20017;-90
2022/03/29 04:09:04;;;;;;;87.47;46.15;;;6.20;99.90;;;;;;5051640;28;20025;-91
2022/03/29 04:11:34;;;;;;;73.10;42.70;;;6.20;99.90;;;;;;5051356;28;20052;-91
2022/03/29 04:14:00;;;;;;;77.55;43.80;;;6.30;99.90;;;;;;5052482;28;20020;-89
2022/03/29 04:16:40;;;;;;;87.32;47.22;;;6.20;99.90;;;;;;5052470;28;20033;-91
2022/03/29 04:19:06;;;;;;;94.88;45.00;;;6.30;99.90;;;;;;5051143;28;20114;-87
2022/03/29 04:21:52;;;;;;;83.43;47.25;;;6.30;99.90;;;;;;5052876;28;20489;-88
2022/03/29 04:24:18;;;;;;;79.15;45.15;;;6.30;99.90;;;;;;5052762;28;20476;-88
2022/03/29 04:26:44;;;;;;;83.80;45.90;;;6.30;99.90;;;;;;5091201;28;20078;-87
2022/03/29 04:29:09;;;;;;;84.50;48.13;;;6.20;99.90;;;;;;5074203;28;20039;-87
2022/03/29 04:31:37;;;;;;;90.93;44.63;;;6.20;99.90;;;;;;5074423;28;20039;-87
2022/03/29 04:34:04;;;;;;;87.05;47.45;;;6.30;99.90;;;;;;5092339;28;20567;-88
2022/03/29 04:36:30;;;;;;;83.30;45.33;;;6.30;99.90;;;;;;5074449;28;20028;-88
2022/03/29 04:38:57;;;;;;;89.97;47.97;;;6.20;99.90;;;;;;5092323;28;20031;-87
2022/03/29 04:41:24;;;;;;;89.10;46.45;;;6.20;99.90;;;;;;5092686;28;20375;-88
2022/03/29 04:43:50;;;;;;;84.22;47.10;;;6.20;99.90;;;;;;5077950;28;20016;-88
2022/03/29 04:46:23;;;;;;;82.50;46.95;;;6.20;99.90;;;;;;5078077;28;20024;-87
2022/03/29 04:48:52;;;;;;;92.80;48.00;;;6.20;99.90;;;;;;5096410;28;20062;-89
2022/03/29 04:51:21;;;;;;;81.75;43.85;;;6.10;99.90;;;;;;5077693;28;20034;-88
2022/03/29 04:53:46;;;;;;;82.15;45.72;;;6.20;99.90;;;;;;5095960;28;20055;-88
2022/03/29 04:56:13;;;;;;;84.72;44.97;;;6.20;99.90;;;;;;5095727;28;20032;-87
2022/03/29 04:58:39;;;;;;;77.85;43.50;;;6.20;99.90;;;;;;5095964;28;20020;-87
2022/03/29 05:01:06;;;;;;;82.78;44.22;;;6.20;99.90;;;;;;5095824;28;20024;-89
2022/03/29 05:03:33;;;;;;;81.53;44.63;;;6.20;99.90;;;;;;5077728;28;20024;-88
2022/03/29 05:06:17;;;;;;;80.13;44.05;;;6.20;99.90;;;;;;5077594;28;20024;-88
2022/03/29 05:08:42;;;;;;;79.32;42.58;;;6.10;99.90;;;;;;5096188;28;20020;-87
2022/03/29 05:11:18;;;;;;;73.53;40.90;;;6.20;99.90;;;;;;5095741;28;20088;-88
2022/03/29 05:13:44;;;;;;;79.18;44.78;;;6.10;99.90;;;;;;5095834;28;20024;-87
2022/03/29 05:16:11;;;;;;;77.30;41.03;;;6.00;99.90;;;;;;5077238;28;20096;-89
2022/03/29 05:18:36;;;;;;;83.68;44.53;;;6.00;99.90;;;;;;5077446;28;20506;-87
2022/03/29 05:21:02;;;;;;;84.22;42.78;;;6.00;99.90;;;;;;5095766;28;20020;-87
2022/03/29 05:23:39;;;;;;;84.82;44.88;;;6.00;99.90;;;;;;5095894;28;20028;-86
2022/03/29 05:26:06;;;;;;;85.97;46.00;;;6.00;99.90;;;;;;5095647;28;20052;-86
2022/03/29 05:28:32;;;;;;;88.95;44.88;;;6.00;99.90;;;;;;5095788;28;20043;-85
2022/03/29 05:30:57;;;;;;;85.22;44.20;;;6.00;99.90;;;;;;5095554;28;20489;-85
2022/03/29 05:33:23;;;;;;;92.28;46.17;;;6.00;99.90;;;;;;5095754;28;20375;-84
2022/03/29 05:35:51;;;;;;;88.95;44.35;;;5.90;99.90;;;;;;5095723;28;20020;-85
2022/03/29 05:38:16;;;;;;;82.63;44.75;;;5.90;99.90;;;;;;5095243;28;20028;-85
2022/03/29 05:40:44;;;;;;;87.45;46.22;;;5.90;99.90;;;;;;5095658;28;20077;-85
2022/03/29 05:43:11;;;;;;;92.75;47.53;;;5.80;99.90;;;;;;5095503;28;20020;-85
2022/03/29 05:45:37;;;;;;;94.72;48.22;;;5.80;99.90;;;;;;5076947;28;20074;-85
2022/03/29 05:50:54;;;;;;;91.18;48.25;;;5.80;99.90;;;;;;5095550;28;20082;-85
2022/03/29 05:53:20;;;;;;;90.28;47.78;;;5.80;99.90;;;;;;5094794;28;20020;-86
2022/03/29 05:55:48;;;;;;;105.80;47.75;;;5.80;99.90;;;;;;5094928;28;20020;-85
2022/03/29 05:58:16;;;;;;;94.43;47.97;;;5.80;99.90;;;;;;5095006;28;20047;-86
2022/03/29 06:00:56;;;;;;;89.15;45.65;;;5.80;99.90;;;;;;5094995;28;20048;-86
2022/03/29 06:03:23;;;;;;;98.38;47.20;;;5.90;99.90;;;;;;5060595;28;20036;-89
2022/03/29 06:05:58;;;;;;;93.15;46.15;;;5.90;99.90;;;;;;5077184;28;20115;-85
2022/03/29 06:08:24;;;;;;;;;;;5.90;99.90;;;;;;5077245;28;20020;-85
2022/03/29 06:10:56;;;;;;;94.65;46.70;;;6.00;99.90;;;;;;5094828;28;19904;-85
2022/03/29 06:13:22;;;;;;;89.80;44.40;;;6.00;99.90;;;;;;5094651;28;20434;-86
2022/03/29 06:15:53;;;;;;;89.88;45.70;;;6.00;99.90;;;;;;5094721;28;20020;-85
2022/03/29 06:18:19;;;;;;;86.25;45.35;;;6.00;99.90;;;;;;5094705;28;20020;-85
2022/03/29 06:20:51;;;;;;;85.70;46.10;;;6.00;99.90;;;;;;5094723;28;20074;-86
2022/03/29 06:23:17;;;;;;;95.03;45.17;;;6.10;99.90;;;;;;5094426;28;20028;-85
2022/03/29 06:25:43;;;;;;;93.18;47.72;;;6.10;99.90;;;;;;5091672;28;20044;-85
2022/03/29 06:28:14;;;;;;;88.15;44.83;;;6.10;99.90;;;;;;5094096;28;20028;-85
2022/03/29 06:30:39;;;;;;;99.55;43.85;;;6.20;99.90;;;;;;5094304;28;20020;-86
2022/03/29 06:33:07;;;;;;;81.97;42.55;;;6.20;99.90;;;;;;5094482;28;20024;-86
2022/03/29 06:35:35;;;;;;;90.43;45.88;;;6.20;99.90;;;;;;5094328;28;20039;-86
2022/03/29 06:38:01;;;;;;;79.57;42.50;;;6.20;99.90;;;;;;5094421;28;20058;-86
2022/03/29 06:40:28;;;;;;;79.00;42.60;;;6.20;99.90;;;;;;5094273;28;20016;-85
2022/03/29 06:42:57;;;;;;;82.03;41.83;;;6.30;99.90;;;;;;5076146;28;20043;-86
2022/03/29 06:45:24;;;;;;;82.88;45.65;;;6.20;99.90;;;;;;5094026;28;20024;-86
2022/03/29 06:47:52;;;;;;;96.53;45.35;;;6.20;99.90;;;;;;5094334;28;20032;-85
2022/03/29 06:50:17;;;;;;;86.05;46.22;;;6.20;99.90;;;;;;5076058;28;20030;-86
2022/03/29 06:52:52;;;;;;;89.90;45.10;;;6.20;99.90;;;;;;5094145;28;20103;-85
2022/03/29 06:55:18;;;;;;;91.95;45.58;;;6.20;99.90;;;;;;5094185;28;20380;-85
2022/03/29 06:57:44;;;;;;;77.03;43.22;;;6.20;99.90;;;;;;5094113;28;20027;-85
2022/03/29 07:00:10;;;;;;;82.72;44.40;;;6.20;99.90;;;;;;5075493;28;20020;-85
2022/03/29 07:03:02;;;;;;;94.32;47.85;;;6.30;99.90;;;;;;5093814;28;20417;-86
2022/03/29 07:05:27;;;;;;;83.10;41.65;;;6.30;99.90;;;;;;5075860;28;20038;-85
2022/03/29 07:07:55;;;;;;;94.60;46.10;;;6.30;99.90;;;;;;5075723;28;20047;-85
2022/03/29 07:13:16;;;;;;;98.07;50.00;;;6.40;99.90;;;;;;5094080;28;20090;-86
2022/03/29 07:15:42;;;;;;;93.78;49.20;;;6.40;99.90;;;;;;5093457;28;20028;-86
2022/03/29 07:18:10;;;;;;;88.25;48.00;;;6.40;99.90;;;;;;5093714;28;20479;-86
2022/03/29 07:20:35;;;;;;;87.60;46.00;;;6.40;99.90;;;;;;5093407;28;20020;-86
2022/03/29 07:23:20;;;;;;;97.00;48.65;;;6.40;99.90;;;;;;5093670;28;20024;-86
2022/03/29 07:25:51;;;;;;;87.13;47.13;;;6.40;99.90;;;;;;5093478;28;20047;-86
2022/03/29 07:28:17;;;;;;;97.05;48.35;;;6.50;99.90;;;;;;5093509;28;20479;-86
2022/03/29 07:30:45;;;;;;;98.90;48.38;;;6.50;99.90;;;;;;5093192;28;20024;-86
2022/03/29 07:33:11;;;;;;;96.28;47.45;;;6.40;99.90;;;;;;5093471;28;20020;-85
2022/03/29 07:35:37;;;;;;;101.22;49.17;;;6.40;99.90;;;;;;5093370;28;20404;-86
2022/03/29 07:38:07;;;;;;;99.50;50.38;;;6.40;99.90;;;;;;5093375;28;20016;-86
2022/03/29 07:40:34;;;;;;;95.13;48.47;;;6.40;99.90;;;;;;5093300;28;20020;-85
2022/03/29 07:42:59;;;;;;;94.32;46.75;;;6.40;99.90;;;;;;5093280;28;20043;-86
2022/03/29 07:45:49;;;;;;;89.28;45.58;;;6.30;99.90;;;;;;5092992;28;20468;-86
2022/03/29 07:48:15;;;;;;;89.53;46.17;;;6.40;99.90;;;;;;5093131;28;20024;-85
2022/03/29 07:50:42;;;;;;;79.22;43.88;;;6.40;99.90;;;;;;5093263;28;20361;-85
2022/03/29 07:53:07;;;;;;;86.90;46.50;;;6.40;99.90;;;;;;5093128;28;20043;-86
2022/03/29 07:55:36;;;;;;;85.90;45.25;;;6.40;99.90;;;;;;5093067;28;20064;-85
2022/03/29 07:58:02;;;;;;;94.25;45.35;;;6.40;99.90;;;;;;5093040;28;20053;-86
2022/03/29 08:00:50;;;;;;;96.78;45.78;;;6.40;99.90;;;;;;5074494;28;20492;-85
2022/03/29 08:03:17;;;;;;;87.63;44.95;;;6.40;99.90;;;;;;5092873;28;20383;-85
2022/03/29 08:06:17;;;;;;;90.20;47.90;;;6.50;99.90;;;;;;5092882;28;20023;-86
2022/03/29 08:08:43;;;;;;;93.32;45.22;;;6.50;99.90;;;;;;5074796;28;20065;-85
2022/03/29 08:11:13;;;;;;;83.85;44.92;;;6.50;99.90;;;;;;5093015;28;20024;-85
2022/03/29 08:13:39;;;;;;;81.65;42.42;;;6.50;99.90;;;;;;5092565;28;20068;-86
2022/03/29 08:16:08;;;;;;;99.53;47.22;;;6.50;99.90;;;;;;5074739;28;20024;-86
2022/03/29 08:18:36;;;;;;;90.35;45.85;;;6.50;99.90;;;;;;5074185;28;20038;-86
2022/03/29 08:24:00;;;;;;;86.95;44.53;;;6.60;99.90;;;;;;5092807;28;20557;-86
2022/03/29 08:26:26;;;;;;;93.50;46.58;;;6.50;99.90;;;;;;5074525;28;20060;-86
2022/03/29 08:29:24;;;;;;;94.75;46.60;;;6.60;99.90;;;;;;5092353;28;20028;-86
2022/03/29 08:31:49;;;;;;;88.95;45.72;;;6.50;99.90;;;;;;5092770;28;20357;-86
2022/03/29 08:34:28;;;;;;;92.25;46.30;;;6.60;99.90;;;;;;5074384;28;20024;-85
2022/03/29 08:36:54;;;;;;;85.47;44.78;;;6.60;99.90;;;;;;5092537;28;20036;-85
2022/03/29 08:39:26;;;;;;;84.45;45.65;;;6.60;99.90;;;;;;5074497;28;20030;-85
2022/03/29 08:42:07;;;;;;;87.15;44.88;;;6.60;99.90;;;;;;5092623;28;20032;-86
2022/03/29 08:44:39;;;;;;;89.40;42.40;;;6.70;99.90;;;;;;5074174;28;20024;-86
2022/03/29 08:47:10;;;;;;;87.95;45.10;;;6.60;99.90;;;;;;5092562;28;20016;-85
2022/03/29 08:49:37;;;;;;;86.10;45.13;;;6.60;99.90;;;;;;5092528;28;20473;-86
2022/03/29 08:52:05;;;;;;;80.97;43.97;;;6.70;99.90;;;;;;5092575;28;20024;-85
2022/03/29 08:54:38;;;;;;;85.97;44.15;;;6.70;99.90;;;;;;5092748;28;20391;-86
2022/03/29 08:57:04;;;;;;;83.15;43.95;;;6.70;99.90;;;;;;5092642;28;20476;-86
2022/03/29 08:59:32;;;;;;;87.13;43.80;;;6.80;99.90;;;;;;5092113;28;20025;-85
2022/03/29 09:02:21;;;;;;;74.07;41.25;;;6.70;99.90;;;;;;5074403;28;20054;-86
2022/03/29 09:05:16;;;;;;;80.43;41.22;;;6.80;99.90;;;;;;5092353;28;20095;-85
2022/03/29 09:07:54;;;;;;;73.63;38.87;;;6.80;99.90;;;;;;5092562;28;20422;-85
2022/03/29 09:10:43;;;;;;;78.07;40.25;;;6.80;99.90;;;;;;5091984;28;20495;-85
2022/03/29 09:13:28;;;;;;;80.57;42.40;;;6.90;99.90;;;;;;5091891;28;20024;-85
2022/03/29 09:15:58;;;;;;;77.43;41.25;;;7.00;99.90;;;;;;5074107;28;20021;-86
2022/03/29 09:18:31;;;;;;;84.72;40.55;;;6.90;99.90;;;;;;5091706;28;20067;-85
2022/03/29 09:21:08;;;;;;;79.65;41.60;;;6.90;99.90;;;;;;5092363;28;20016;-85
2022/03/29 09:23:39;;;;;;;82.72;40.47;;;6.90;99.90;;;;;;5092060;28;20020;-85
2022/03/29 09:26:06;;;;;;;81.32;43.80;;;6.90;99.90;;;;;;5091118;28;20083;-86
2022/03/29 09:28:39;;;;;;;76.57;41.80;;;7.00;99.90;;;;;;5093148;28;20032;-85
2022/03/29 09:31:23;;;;;;;66.30;38.25;;;7.00;99.90;;;;;;5096002;28;20438;-85
2022/03/29 09:34:28;;;;;;;73.68;40.92;;;7.10;99.90;;;;;;5095793;28;20021;-85
2022/03/29 09:36:54;;;;;;;81.60;42.17;;;7.10;99.90;;;;;;5095689;28;20020;-85
2022/03/29 09:40:02;;;;;;;84.97;44.03;;;7.30;99.90;;;;;;5077429;28;20571;-86
2022/03/29 09:42:28;;;;;;;78.10;43.83;;;7.30;99.90;;;;;;5095705;28;20012;-86
2022/03/29 09:44:57;;;;;;;79.95;43.15;;;7.30;99.90;;;;;;5077124;28;20081;-85
2022/03/29 09:47:26;;;;;;;76.40;41.58;;;7.30;99.90;;;;;;5095603;28;20016;-85
2022/03/29 09:50:06;;;;;;;83.88;43.47;;;7.30;99.90;;;;;;5077401;28;20393;-86
2022/03/29 09:52:44;;;;;;;85.93;45.05;;;7.40;99.90;;;;;;5095469;28;20020;-86
2022/03/29 09:55:17;;;;;;;83.43;44.75;;;7.50;99.90;;;;;;5077287;28;20111;-85
2022/03/29 09:57:47;;;;;;;92.00;45.03;;;7.60;99.90;;;;;;5095422;28;20104;-85
2022/03/29 10:00:38;;;;;;;87.78;46.25;;;7.70;99.90;;;;;;5094819;28;20024;-85
2022/03/29 10:03:09;;;;;;;85.63;44.60;;;7.80;99.90;;;;;;5095084;28;20054;-85
2022/03/29 10:05:39;;;;;;;93.38;46.15;;;7.80;99.90;;;;;;5095190;28;20024;-85
2022/03/29 10:11:03;;;;;;;78.85;45.17;;;8.00;99.90;;;;;;5095116;28;20085;-85
2022/03/29 10:13:30;;;;;;;89.45;46.58;;;8.00;99.90;;;;;;5094579;28;20070;-86
2022/03/29 10:16:04;;;;;;;84.75;45.13;;;8.10;99.90;;;;;;5076972;28;20020;-85
2022/03/29 10:18:30;;;;;;;88.43;46.85;;;8.10;99.90;;;;;;5094945;28;20476;-85
2022/03/29 10:21:00;;;;;;;83.82;45.92;;;8.20;99.90;;;;;;5094815;28;20022;-85
2022/03/29 10:23:28;;;;;;;88.07;46.22;;;8.20;99.90;;;;;;5094783;28;20016;-86
2022/03/29 10:25:55;;;;;;;87.03;45.70;;;8.30;99.90;;;;;;5066686;28;20427;-85
2022/03/29 10:28:25;;;;;;;93.63;49.00;;;8.30;99.90;;;;;;5053072;28;20060;-85
2022/03/29 10:30:51;;;;;;;85.78;45.15;;;8.40;99.90;;;;;;5053593;28;20028;-85
2022/03/29 10:33:31;;;;;;;87.35;45.97;;;8.40;99.90;;;;;;5053163;28;20028;-85
2022/03/29 10:36:14;;;;;;;83.00;45.05;;;8.40;99.90;;;;;;5054432;28;20541;-85
2022/03/29 10:39:01;;;;;;;89.65;49.33;;;8.40;99.90;;;;;;5054418;28;20447;-85
2022/03/29 10:41:27;;;;;;;90.65;47.05;;;8.40;99.90;;;;;;5052757;28;20108;-85
2022/03/29 10:44:08;;;;;;;88.22;46.60;;;8.50;99.90;;;;;;5053865;28;20056;-85
2022/03/29 10:46:37;;;;;;;85.03;47.55;;;8.50;99.90;;;;;;5054146;28;20040;-85
2022/03/29 10:49:15;;;;;;;96.70;49.78;;;8.60;99.90;;;;;;5054194;28;20025;-85
2022/03/29 10:51:41;;;;;;;91.40;46.30;;;8.80;99.90;;;;;;5054210;28;20032;-85
2022/03/29 10:54:32;;;;;;;80.75;43.63;;;8.90;99.90;;;;;;5054035;28;20024;-85
2022/03/29 10:57:03;;;;;;;83.32;47.92;;;8.90;99.90;;;;;;5052812;28;20476;-85
2022/03/29 10:59:30;;;;;;;90.43;46.33;;;9.00;99.90;;;;;;5053666;28;20052;-85
2022/03/29 11:02:21;;;;;;;85.22;48.00;;;9.00;99.90;;;;;;5053842;28;20028;-84
2022/03/29 11:05:12;;;;;;;86.40;48.33;;;9.10;99.90;;;;;;5053885;28;20075;-85
2022/03/29 11:07:52;;;;;;;84.28;47.03;;;9.20;99.90;;;;;;5054130;28;20017;-85
2022/03/29 11:10:20;;;;;;;86.40;47.03;;;9.40;99.90;;;;;;5054441;28;20048;-88
2022/03/29 11:12:53;;;;;;;81.07;47.72;;;9.40;99.90;;;;;;5053102;28;20021;-88
2022/03/29 11:15:25;;;;;;;86.70;47.00;;;9.40;99.90;;;;;;5054474;28;20021;-89
2022/03/29 11:17:55;;;;;;;86.63;47.78;;;9.60;99.90;;;;;;5054657;28;20032;-89
2022/03/29 11:20:56;;;;;;;90.45;48.85;;;9.60;99.90;;;;;;5052472;28;20508;-85
2022/03/29 11:23:51;;;;;;;85.70;46.88;;;9.70;99.90;;;;;;5032198;28;20435;-84
2022/03/29 11:26:18;;;;;;;99.88;49.60;;;9.80;99.90;;;;;;5047537;28;20131;-84
2022/03/29 11:28:56;;;;;;;88.88;46.80;;;9.90;99.90;;;;;;5053097;28;20017;-85
2022/03/29 11:31:24;;;;;;;92.53;47.35;;;10.00;99.90;;;;;;5053258;28;20033;-85
2022/03/29 11:33:55;;;;;;;86.53;46.35;;;10.00;99.90;;;;;;5053262;28;20029;-85
2022/03/29 11:36:22;;;;;;;83.55;44.55;;;10.10;99.90;;;;;;5053285;28;20025;-84
2022/03/29 11:38:56;;;;;;;89.95;47.30;;;10.10;99.90;;;;;;5053197;28;20020;-84
2022/03/29 11:41:23;;;;;;;85.78;45.45;;;10.30;99.90;;;;;;5053275;28;20111;-84
2022/03/29 11:44:06;;;;;;;85.15;45.15;;;10.20;99.90;;;;;;5052735;28;20025;-84
2022/03/29 11:46:53;;;;;;;78.28;43.47;;;10.30;99.90;;;;;;5053175;28;20025;-84
2022/03/29 11:49:40;;;;;;;77.40;40.40;;;10.30;99.90;;;;;;5053091;28;20025;-84
2022/03/29 11:52:14;;;;;;;91.00;47.08;;;10.30;99.90;;;;;;5050806;28;20025;-84
2022/03/29 11:54:43;;;;;;;87.95;48.58;;;10.30;99.90;;;;;;5053010;28;20028;-84
2022/03/29 11:57:29;;;;;;;89.25;47.85;;;10.40;99.90;;;;;;5052986;28;20064;-84
2022/03/29 11:59:55;;;;;;;83.35;46.50;;;10.30;99.90;;;;;;5051290;28;20053;-84
2022/03/29 12:02:41;;;;;;;85.03;45.78;;;10.30;99.90;;;;;;5052979;28;20025;-84
2022/03/29 12:05:07;;;;;;;85.37;45.80;;;10.30;99.90;;;;;;5051709;28;20036;-84
2022/03/29 12:08:05;;;;;;;103.05;51.78;;;10.30;99.90;;;;;;5051483;28;20299;-84
2022/03/29 12:10:34;;;;;;;96.07;47.25;;;10.30;99.90;;;;;;5052834;28;20381;-85
2022/03/29 12:13:01;;;;;;;92.00;48.35;;;10.40;99.90;;;;;;5051082;28;20025;-84
2022/03/29 12:15:27;;;;;;;86.05;46.65;;;10.50;99.90;;;;;;5051809;28;20510;-84
2022/03/29 12:18:42;;;;;;;100.55;50.50;;;10.50;99.90;;;;;;5051462;28;20032;-84
2022/03/29 12:21:13;;;;;;;91.20;47.58;;;10.60;99.90;;;;;;5052740;28;20025;-84
2022/03/29 12:23:42;;;;;;;94.22;48.25;;;10.70;99.90;;;;;;5052505;28;20032;-84
2022/03/29 12:26:11;;;;;;;89.03;45.72;;;10.80;99.90;;;;;;5051147;28;20098;-83
2022/03/29 12:28:37;;;;;;;87.70;46.13;;;10.70;99.90;;;;;;5051898;28;20066;-83
2022/03/29 12:31:17;;;;;;;83.93;45.75;;;10.80;99.90;;;;;;5052244;28;20070;-84
2022/03/29 12:33:44;;;;;;;92.88;47.92;;;10.90;99.90;;;;;;5052362;28;20381;-83
2022/03/29 12:36:13;;;;;;;95.28;44.60;;;11.00;99.90;;;;;;5052259;28;20021;-83
2022/03/29 12:38:41;;;;;;;83.13;45.33;;;11.00;99.90;;;;;;5052072;28;20029;-83
2022/03/29 12:41:35;;;;;;;86.90;45.35;;;11.00;99.90;;;;;;5050756;28;20071;-83
2022/03/29 12:44:01;;;;;;;83.78;44.35;;;11.00;99.90;;;;;;5051804;28;20025;-83
2022/03/29 12:46:36;;;;;;;88.10;44.83;;;11.00;99.90;;;;;;5050848;28;20026;-83
2022/03/29 12:49:03;;;;;;;77.72;43.42;;;11.10;99.90;;;;;;5051316;28;20466;-83
2022/03/29 12:51:33;;;;;;;85.50;43.92;;;11.30;99.90;;;;;;5052402;28;20029;-84
2022/03/29 12:54:34;;;;;;;85.68;43.35;;;11.40;99.90;;;;;;5050725;28;20147;-84
2022/03/29 12:57:06;;;;;;;81.07;43.75;;;11.50;99.90;;;;;;5046793;28;20033;-83
2022/03/29 12:59:35;;;;;;;77.20;41.28;;;11.50;99.90;;;;;;5051973;28;20029;-83
2022/03/29 13:02:23;;;;;;;73.68;42.15;;;11.60;99.90;;;;;;5052103;28;20024;-85
2022/03/29 13:04:56;;;;;;;77.93;40.85;;;11.50;99.90;;;;;;5055527;28;20051;-85
2022/03/29 13:07:59;;;;;;;82.18;41.33;;;11.50;99.90;;;;;;5055779;28;20024;-85
2022/03/29 13:10:36;;;;;;;69.22;39.42;;;11.40;99.90;;;;;;5042723;28;20100;-85
2022/03/29 13:13:07;;;;;;;82.70;41.22;;;11.50;99.90;;;;;;5055734;28;20043;-85
2022/03/29 13:15:47;;;;;;;73.30;38.63;;;11.50;99.90;;;;;;5056087;28;20021;-85